createdAt,value
2022-11-28T05:59:44.322Z,9.30
2022-11-28T06:02:12.408Z,8.00
2022-11-28T06:04:41.982Z,9.80
2022-11-28T06:07:08.856Z,8.40
2022-11-28T06:09:35.531Z,7.40
2022-11-28T06:12:02.176Z,7.70
2022-11-28T06:14:28.802Z,7.80
2022-11-28T06:16:55.511Z,7.80
2022-11-28T06:19:22.139Z,8.80
2022-11-28T06:21:50.274Z,8.30
2022-11-28T06:24:17.091Z,8.60
2022-11-28T06:26:43.763Z,8.60
2022-11-28T06:29:10.381Z,11.20
2022-11-28T06:31:37.354Z,11.20
2022-11-28T06:34:04.014Z,11.50
2022-11-28T06:36:31.022Z,13.90
2022-11-28T06:38:57.725Z,23.60
2022-11-28T06:41:24.399Z,13.90
2022-11-28T06:43:51.062Z,12.60
2022-11-28T06:46:19.191Z,14.60
2022-11-28T06:48:46.409Z,15.40
2022-11-28T06:51:13.711Z,15.20
2022-11-28T06:53:40.456Z,17.10
2022-11-28T06:56:08.393Z,16.90
2022-11-28T06:58:35.464Z,19.30
2022-11-28T07:01:07.144Z,19.70
2022-11-28T07:03:33.880Z,17.40
2022-11-28T07:06:02.184Z,13.10
2022-11-28T07:08:30.238Z,13.00
2022-11-28T07:10:57.602Z,11.40
2022-11-28T07:13:24.886Z,9.90
2022-11-28T07:15:51.560Z,9.60
2022-11-28T07:18:18.304Z,9.40
2022-11-28T07:20:44.909Z,8.90
2022-11-28T07:23:11.571Z,9.40
2022-11-28T07:25:38.197Z,9.50
2022-11-28T07:28:05.024Z,13.50
2022-11-28T07:30:31.931Z,17.90
2022-11-28T07:32:58.591Z,14.00
2022-11-28T07:35:25.259Z,14.70
2022-11-28T07:37:51.976Z,13.10
2022-11-28T07:40:19.818Z,12.80
2022-11-28T07:42:48.720Z,13.00
2022-11-28T07:45:15.389Z,11.50
2022-11-28T07:47:42.130Z,11.00
2022-11-28T07:50:09.241Z,10.70
2022-11-28T07:52:35.903Z,11.10
2022-11-28T07:55:02.638Z,10.20
2022-11-28T07:57:30.683Z,9.70
2022-11-28T07:59:57.546Z,9.40
2022-11-28T08:02:24.271Z,8.60
2022-11-28T08:07:37.822Z,9.00
2022-11-28T08:10:06.380Z,9.00
2022-11-28T08:12:32.998Z,9.10
2022-11-28T08:14:59.619Z,8.60
2022-11-28T08:17:26.351Z,7.70
2022-11-28T08:19:52.948Z,7.70
2022-11-28T08:22:19.581Z,7.70
2022-11-28T08:24:46.202Z,7.10
2022-11-28T08:27:13.137Z,6.90
2022-11-28T08:29:39.813Z,6.60
2022-11-28T08:32:06.476Z,6.40
2022-11-28T08:34:33.103Z,6.40
2022-11-28T08:36:59.838Z,7.10
2022-11-28T08:39:26.602Z,7.30
2022-11-28T08:41:57.070Z,7.40
2022-11-28T08:44:23.875Z,7.30
2022-11-28T08:46:50.593Z,7.40
2022-11-28T08:49:17.324Z,7.60
2022-11-28T08:51:43.978Z,7.80
2022-11-28T08:54:10.628Z,8.20
2022-11-28T08:56:37.276Z,7.50
2022-11-28T08:59:04.247Z,7.50
2022-11-28T09:01:31.253Z,8.00
2022-11-28T09:03:58.029Z,8.10
2022-11-28T09:06:24.961Z,8.50
2022-11-28T18:49:45.811Z,14.10
2022-11-28T18:52:13.318Z,15.60
2022-11-28T18:54:39.971Z,14.90
2022-11-28T18:57:07.815Z,14.60
2022-11-28T18:59:34.577Z,14.50
2022-11-28T19:02:02.180Z,13.70
2022-11-28T19:04:28.875Z,12.90
2022-11-28T19:06:55.765Z,13.90
2022-11-28T19:09:22.612Z,12.70
2022-11-28T19:11:49.345Z,13.10
2022-11-28T19:14:18.395Z,12.90
2022-11-28T19:16:46.921Z,12.80
2022-11-28T19:19:15.921Z,12.80
2022-11-28T19:21:43.199Z,11.80
2022-11-28T19:24:12.611Z,12.10
2022-11-28T19:26:39.369Z,13.40
2022-11-28T19:29:06.248Z,13.20
2022-11-28T19:31:34.051Z,13.30
2022-11-28T19:34:02.427Z,13.90
2022-11-28T19:36:32.223Z,14.50
2022-11-28T19:38:59.744Z,13.80
2022-11-28T19:41:26.854Z,13.00
2022-11-28T19:43:53.473Z,12.80
2022-11-28T19:46:20.522Z,13.10
2022-11-28T19:48:48.138Z,11.30
2022-11-28T19:51:15.868Z,12.30
2022-11-28T19:53:42.625Z,11.90
2022-11-28T19:56:14.991Z,13.20
2022-11-28T19:58:42.123Z,11.80
2022-11-28T20:01:19.331Z,12.40
2022-11-28T20:03:49.992Z,12.80
2022-11-28T20:06:36.832Z,12.20
2022-11-28T20:09:06.040Z,13.40
2022-11-28T20:11:34.031Z,15.20
2022-11-28T20:14:06.473Z,15.40
2022-11-28T20:16:34.971Z,16.10
2022-11-28T20:19:02.016Z,15.00
2022-11-28T20:21:28.989Z,14.30
2022-11-28T20:23:58.130Z,14.60
2022-11-28T20:26:26.765Z,13.40
2022-11-28T20:28:54.665Z,16.20
2022-11-28T20:31:24.906Z,16.30
2022-11-28T20:33:52.295Z,15.40
2022-11-28T20:36:20.578Z,14.90
2022-11-28T20:38:47.902Z,14.80
2022-11-28T20:41:15.341Z,14.60
2022-11-28T20:43:42.243Z,15.40
2022-11-28T20:46:10.041Z,14.30
2022-11-28T20:48:36.804Z,13.70
2022-11-28T20:51:06.518Z,15.10
2022-11-28T20:53:33.267Z,13.50
2022-11-28T20:56:05.672Z,11.80
2022-11-28T20:58:32.541Z,10.00
2022-11-28T21:01:00.305Z,10.70
2022-11-28T21:03:27.000Z,10.30
2022-11-28T21:05:59.433Z,10.60
2022-11-28T21:08:30.395Z,11.20
2022-11-28T21:11:36.396Z,10.60
2022-11-28T21:14:05.204Z,11.80
2022-11-28T21:16:46.945Z,10.20
2022-11-28T21:19:13.707Z,9.60
2022-11-28T21:21:40.683Z,9.90
2022-11-28T21:24:09.599Z,9.00
2022-11-28T21:26:40.985Z,9.70
2022-11-28T21:29:11.270Z,9.30
2022-11-28T21:31:40.412Z,9.60
2022-11-28T21:34:07.182Z,9.80
2022-11-28T21:36:33.907Z,9.80
2022-11-28T21:39:00.816Z,9.30
2022-11-28T21:41:29.312Z,9.40
2022-11-28T21:43:56.045Z,10.30
2022-11-28T21:46:22.899Z,9.70
2022-11-28T21:48:49.543Z,9.60
2022-11-28T21:51:49.525Z,10.00
2022-11-28T21:54:16.439Z,8.80
2022-11-28T21:56:44.981Z,9.30
2022-11-28T21:59:11.753Z,9.60
2022-11-28T22:01:39.432Z,8.40
2022-11-28T22:04:06.150Z,8.70
2022-11-28T22:06:33.040Z,8.50
2022-11-28T22:09:08.328Z,8.40
2022-11-28T22:11:35.979Z,8.40
2022-11-28T22:14:03.220Z,7.90
2022-11-28T22:16:30.106Z,7.70
2022-11-28T22:18:59.565Z,7.20
2022-11-28T22:21:50.961Z,7.80
2022-11-28T22:24:13.507Z,7.90
2022-11-28T22:26:40.192Z,7.80
2022-11-28T22:29:06.882Z,8.40
2022-11-28T22:31:33.613Z,7.60
2022-11-28T22:34:00.417Z,6.70
2022-11-28T22:36:27.321Z,7.50
2022-11-28T22:38:55.008Z,7.60
2022-11-28T22:41:28.265Z,6.60
2022-11-28T22:43:59.409Z,7.20
2022-11-28T22:46:27.186Z,6.80
2022-11-28T22:48:53.823Z,6.40
2022-11-28T22:51:22.317Z,6.40
2022-11-28T22:53:53.345Z,6.80
2022-11-28T22:56:20.099Z,6.80
2022-11-28T22:58:46.868Z,6.60
2022-11-28T23:01:21.993Z,6.70
2022-11-28T23:03:48.862Z,7.00
2022-11-28T23:06:17.835Z,6.50
2022-11-28T23:08:45.556Z,6.10
2022-11-28T23:11:14.350Z,5.90
2022-11-28T23:13:41.358Z,6.70
2022-11-28T23:16:12.770Z,6.50
2022-11-28T23:18:39.931Z,5.80
2022-11-28T23:21:06.761Z,6.10
2022-11-28T23:23:34.071Z,6.50
2022-11-28T23:26:11.942Z,6.10
2022-11-28T23:28:39.006Z,5.50
2022-11-28T23:31:10.853Z,6.00
2022-11-28T23:33:37.721Z,5.60
2022-11-28T23:36:17.549Z,6.00
2022-11-28T23:38:44.923Z,5.80
2022-11-28T23:41:11.728Z,5.50
2022-11-28T23:43:38.508Z,6.00
2022-11-28T23:46:05.351Z,5.60
2022-11-28T23:48:32.147Z,5.80
2022-11-28T23:50:58.876Z,5.90
2022-11-28T23:53:25.524Z,6.10
2022-11-28T23:55:52.207Z,5.90
2022-11-28T23:58:19.037Z,6.00
